createdAt,value
2022-08-17T00:03:18.017Z,23.00
2022-08-17T00:08:12.749Z,22.90
2022-08-17T00:13:11.062Z,22.80
2022-08-17T00:18:04.350Z,22.70
2022-08-17T00:23:18.114Z,22.50
2022-08-17T00:28:11.218Z,22.40
2022-08-17T00:33:16.580Z,22.40
2022-08-17T00:38:10.254Z,22.30
2022-08-17T00:43:41.508Z,22.20
2022-08-17T00:48:34.618Z,22.10
2022-08-17T00:53:30.815Z,22.10
2022-08-17T00:58:28.699Z,22.00
2022-08-17T01:03:30.084Z,21.90
2022-08-17T01:08:24.930Z,21.80
2022-08-17T01:13:18.131Z,21.70
2022-08-17T01:18:11.817Z,21.60
2022-08-17T01:23:04.558Z,21.60
2022-08-17T01:27:57.121Z,21.60
2022-08-17T01:32:49.617Z,21.60
2022-08-17T01:37:43.206Z,21.60
2022-08-17T01:42:42.989Z,21.50
2022-08-17T01:47:37.281Z,21.30
2022-08-17T01:52:29.613Z,21.20
2022-08-17T01:57:21.781Z,21.20
2022-08-17T02:02:30.681Z,21.10
2022-08-17T02:07:26.044Z,20.90
2022-08-17T02:12:37.717Z,20.90
2022-08-17T02:17:31.639Z,20.80
2022-08-17T02:22:26.461Z,20.90
2022-08-17T02:27:18.747Z,20.80
2022-08-17T02:32:20.737Z,20.60
2022-08-17T02:37:20.214Z,20.60
2022-08-17T02:42:14.672Z,20.50
2022-08-17T02:47:08.253Z,20.40
2022-08-17T02:52:03.836Z,20.30
2022-08-17T02:57:03.363Z,20.10
2022-08-17T03:01:56.084Z,20.00
2022-08-17T03:06:48.685Z,20.00
2022-08-17T03:11:40.998Z,19.90
2022-08-17T03:16:33.353Z,19.80
2022-08-17T03:21:26.882Z,19.80
2022-08-17T03:26:19.006Z,19.80
2022-08-17T03:31:11.661Z,19.70
2022-08-17T03:36:04.334Z,19.60
2022-08-17T03:40:59.777Z,19.70
2022-08-17T03:46:28.232Z,19.70
2022-08-17T03:51:42.822Z,19.60
2022-08-17T03:56:44.540Z,19.50
2022-08-17T04:01:37.372Z,19.50
2022-08-17T04:06:29.681Z,19.60
2022-08-17T04:11:21.927Z,19.50
2022-08-17T04:16:14.277Z,19.50
2022-08-17T04:21:09.553Z,19.70
2022-08-17T04:26:01.915Z,19.80
2022-08-17T04:30:54.214Z,19.90
2022-08-17T04:35:52.668Z,20.00
2022-08-17T04:41:04.134Z,20.20
2022-08-17T04:45:59.487Z,20.60
2022-08-17T04:50:51.880Z,21.10
2022-08-17T04:55:44.239Z,21.50
2022-08-17T05:00:38.840Z,22.70
2022-08-17T05:05:33.755Z,22.60
2022-08-17T05:10:29.031Z,22.30
2022-08-17T05:15:21.279Z,22.40
2022-08-17T05:20:14.921Z,22.40
2022-08-17T05:25:09.178Z,22.60
2022-08-17T05:30:02.723Z,22.70
2022-08-17T05:34:59.596Z,26.00
2022-08-17T05:39:51.892Z,30.30
2022-08-17T05:44:44.281Z,33.60
2022-08-17T05:49:36.889Z,34.80
2022-08-17T05:54:54.022Z,36.50
2022-08-17T06:00:30.013Z,37.50
2022-08-17T06:05:23.231Z,35.70
2022-08-17T06:10:40.730Z,33.10
2022-08-17T06:16:03.179Z,31.60
2022-08-17T06:21:00.537Z,30.10
2022-08-17T06:25:58.802Z,29.10
2022-08-17T06:31:00.692Z,29.70
2022-08-17T06:36:25.131Z,32.00
2022-08-17T06:41:23.729Z,37.00
2022-08-17T06:46:31.267Z,38.60
2022-08-17T06:51:43.988Z,40.70
2022-08-17T06:57:15.980Z,42.40
2022-08-17T07:02:10.318Z,43.90
2022-08-17T07:07:27.570Z,44.00
2022-08-17T07:12:24.746Z,44.30
2022-08-17T07:17:20.016Z,44.10
2022-08-17T07:22:30.644Z,44.50
2022-08-17T07:27:51.166Z,45.60
2022-08-17T07:32:48.954Z,46.50
2022-08-17T07:38:25.109Z,46.20
2022-08-17T07:43:46.793Z,47.10
2022-08-17T07:48:41.763Z,46.80
2022-08-17T07:53:34.762Z,46.90
2022-08-17T07:58:27.004Z,47.50
2022-08-17T08:03:32.076Z,47.80
2022-08-17T08:08:42.505Z,47.30
2022-08-17T08:13:43.911Z,47.20
2022-08-17T08:18:55.715Z,48.30
2022-08-17T08:23:57.935Z,48.80
2022-08-17T08:29:28.328Z,48.50
2022-08-17T08:35:01.139Z,48.70
2022-08-17T08:40:08.504Z,48.30
2022-08-17T08:45:21.006Z,47.80
2022-08-17T08:50:55.224Z,47.50
2022-08-17T08:56:19.142Z,46.80
2022-08-17T09:01:28.336Z,46.70
2022-08-17T09:06:49.396Z,47.30
2022-08-17T09:12:10.742Z,46.00
2022-08-17T09:17:13.972Z,44.40
2022-08-17T09:22:30.615Z,43.60
2022-08-17T09:27:29.016Z,44.20
2022-08-17T09:32:28.888Z,46.60
2022-08-17T09:37:30.407Z,47.70
2022-08-17T09:42:38.240Z,48.90
2022-08-17T09:47:55.660Z,49.50
2022-08-17T09:52:58.332Z,49.00
2022-08-17T09:58:09.484Z,48.80
2022-08-17T10:03:35.732Z,47.60
2022-08-17T10:08:37.104Z,48.30
2022-08-17T10:13:52.652Z,48.50
2022-08-17T10:19:02.317Z,49.30
2022-08-17T10:24:28.339Z,49.90
2022-08-17T10:29:48.608Z,47.80
2022-08-17T10:34:54.163Z,47.10
2022-08-17T10:40:00.634Z,46.70
2022-08-17T10:45:06.589Z,45.00
2022-08-17T10:50:38.142Z,44.90
2022-08-17T10:55:30.632Z,46.20
2022-08-17T11:00:27.975Z,46.80
2022-08-17T11:05:43.993Z,47.30
2022-08-17T11:10:58.149Z,47.70
2022-08-17T11:16:32.794Z,47.90
2022-08-17T11:21:35.014Z,46.60
2022-08-17T11:26:27.244Z,46.90
2022-08-17T11:31:39.270Z,46.80
2022-08-17T11:36:54.284Z,45.70
2022-08-17T11:42:26.982Z,45.40
2022-08-17T11:48:26.550Z,43.90
2022-08-17T11:53:37.919Z,40.30
2022-08-17T11:58:30.068Z,38.60
2022-08-17T12:03:53.793Z,37.70
2022-08-17T12:09:13.787Z,36.60
2022-08-17T12:14:09.489Z,36.20
2022-08-17T12:19:04.575Z,36.40
2022-08-17T12:23:59.665Z,36.40
2022-08-17T12:28:59.682Z,36.10
2022-08-17T12:33:53.491Z,35.80
2022-08-17T12:38:57.382Z,35.40
2022-08-17T12:44:02.827Z,35.40
2022-08-17T12:49:10.790Z,35.40
2022-08-17T12:54:03.054Z,35.50
2022-08-17T12:58:56.595Z,35.30
2022-08-17T13:03:52.574Z,35.30
2022-08-17T13:08:50.681Z,35.40
2022-08-17T13:13:46.207Z,35.50
2022-08-17T13:18:53.030Z,35.40
2022-08-17T13:24:07.910Z,35.10
2022-08-17T13:29:02.713Z,34.80
2022-08-17T13:34:15.263Z,34.80
2022-08-17T13:39:27.984Z,35.00
2022-08-17T13:44:37.889Z,35.00
2022-08-17T13:49:41.941Z,35.30
2022-08-17T13:54:41.748Z,35.80
2022-08-17T13:59:54.318Z,36.20
2022-08-17T14:04:48.825Z,36.00
2022-08-17T14:09:48.915Z,35.70
2022-08-17T14:14:42.791Z,35.80
2022-08-17T14:19:35.325Z,35.50
2022-08-17T14:24:29.191Z,35.10
2022-08-17T14:29:23.346Z,35.10
2022-08-17T14:34:15.946Z,35.00
2022-08-17T14:39:13.579Z,34.90
2022-08-17T14:44:06.594Z,34.70
2022-08-17T14:48:59.891Z,34.70
2022-08-17T14:53:52.130Z,34.40
2022-08-17T14:58:44.425Z,34.30
2022-08-17T15:03:37.088Z,34.20
2022-08-17T15:08:29.973Z,34.20
2022-08-17T15:13:24.421Z,34.30
2022-08-17T15:18:17.485Z,34.20
2022-08-17T15:23:13.732Z,34.20
2022-08-17T15:28:07.588Z,34.10
2022-08-17T15:33:00.924Z,34.00
2022-08-17T15:37:53.202Z,34.20
2022-08-17T15:42:45.473Z,34.10
2022-08-17T15:47:37.918Z,34.00
2022-08-17T15:52:30.477Z,33.90
2022-08-17T15:57:25.381Z,33.80
2022-08-17T16:03:45.180Z,33.70
2022-08-17T16:07:43.575Z,33.70
2022-08-17T16:12:36.826Z,33.50
2022-08-17T16:17:39.206Z,33.30
2022-08-17T16:22:44.497Z,33.20
2022-08-17T16:27:40.018Z,33.10
2022-08-17T16:32:32.969Z,33.10
2022-08-17T16:37:25.380Z,32.70
2022-08-17T16:42:26.645Z,32.50
2022-08-17T16:47:19.687Z,32.30
2022-08-17T16:52:12.717Z,32.10
2022-08-17T16:57:05.496Z,31.80
2022-08-17T17:02:04.392Z,31.30
2022-08-17T17:07:52.687Z,31.00
2022-08-17T17:13:59.775Z,30.70
2022-08-17T17:20:06.994Z,30.60
2022-08-17T17:26:15.227Z,30.40
2022-08-17T17:32:23.059Z,30.20
2022-08-17T17:38:30.314Z,30.00
2022-08-17T17:44:37.538Z,29.80
2022-08-17T17:50:44.959Z,29.70
2022-08-17T17:56:52.481Z,29.60
2022-08-17T18:02:59.486Z,29.50
2022-08-17T18:09:06.842Z,29.50
2022-08-17T18:15:13.737Z,29.40
2022-08-17T18:21:21.209Z,29.20
2022-08-17T18:27:28.269Z,29.10
2022-08-17T18:33:35.713Z,28.90
2022-08-17T18:39:42.570Z,28.60
2022-08-17T18:45:52.865Z,28.40
2022-08-17T18:51:59.736Z,28.20
2022-08-17T18:58:07.091Z,28.10
2022-08-17T19:03:52.330Z,27.90
2022-08-17T19:08:45.168Z,27.60
2022-08-17T19:14:05.771Z,27.40
2022-08-17T19:19:08.249Z,27.20
2022-08-17T19:24:19.997Z,27.00
2022-08-17T19:29:32.805Z,26.80
2022-08-17T19:34:33.866Z,26.60
2022-08-17T19:39:38.168Z,26.40
2022-08-17T19:44:48.990Z,26.30
2022-08-17T19:50:41.537Z,26.10
2022-08-17T19:55:43.633Z,26.00
2022-08-17T20:00:47.254Z,25.90
2022-08-17T20:06:11.342Z,25.80
2022-08-17T20:11:32.701Z,25.80
2022-08-17T20:16:25.390Z,25.70
2022-08-17T20:21:41.546Z,25.60
2022-08-17T20:26:49.173Z,25.50
2022-08-17T20:32:07.726Z,25.40
2022-08-17T20:37:14.655Z,25.30
2022-08-17T20:42:21.915Z,25.20
2022-08-17T20:47:31.412Z,25.10
2022-08-17T20:52:54.390Z,24.90
2022-08-17T20:57:49.126Z,24.80
2022-08-17T21:02:46.994Z,24.60
2022-08-17T21:07:53.319Z,24.50
2022-08-17T21:12:51.545Z,24.40
2022-08-17T21:18:00.817Z,24.20
2022-08-17T21:23:21.007Z,24.20
2022-08-17T21:28:29.895Z,24.20
2022-08-17T21:33:33.240Z,24.10
2022-08-17T21:39:02.359Z,24.10
2022-08-17T21:44:05.333Z,23.90
2022-08-17T21:49:12.259Z,23.80
2022-08-17T21:54:35.203Z,23.70
2022-08-17T21:59:40.155Z,23.60
2022-08-17T22:04:38.008Z,23.60
2022-08-17T22:09:41.455Z,23.70
2022-08-17T22:15:06.116Z,23.60
2022-08-17T22:20:14.583Z,23.60
2022-08-17T22:25:21.496Z,23.50
2022-08-17T22:30:34.355Z,23.30
2022-08-17T22:35:42.815Z,23.20
2022-08-17T22:40:35.114Z,23.10
2022-08-17T22:45:31.273Z,23.00
2022-08-17T22:50:27.286Z,22.90
2022-08-17T22:55:44.565Z,22.80
2022-08-17T23:00:41.189Z,22.80
2022-08-17T23:05:34.206Z,22.60
2022-08-17T23:10:28.696Z,22.50
2022-08-17T23:15:20.875Z,22.50
2022-08-17T23:20:15.396Z,22.40
2022-08-17T23:25:09.261Z,22.40
2022-08-17T23:30:02.819Z,22.30
2022-08-17T23:34:55.055Z,22.30
2022-08-17T23:39:47.470Z,22.20
2022-08-17T23:44:41.820Z,22.20
2022-08-17T23:49:36.250Z,22.10
2022-08-17T23:54:43.635Z,22.00
2022-08-17T23:59:39.287Z,22.00
